sensor_id;sensor_type;location;lat;lon;timestamp;P1;durP1;ratioP1;P2;durP2;ratioP2
73296;SDS011;61524;50.938;11.396;2022-12-18T00:01:30;2.45;;;1.98;;
73296;SDS011;61524;50.938;11.396;2022-12-18T00:04:00;5.68;;;3.55;;
73296;SDS011;61524;50.938;11.396;2022-12-18T00:06:28;6.25;;;2.72;;
73296;SDS011;61524;50.938;11.396;2022-12-18T00:08:55;5.88;;;3.42;;
73296;SDS011;61524;50.938;11.396;2022-12-18T00:11:22;4.43;;;2.38;;
73296;SDS011;61524;50.938;11.396;2022-12-18T00:13:50;7.28;;;3.40;;
73296;SDS011;61524;50.938;11.396;2022-12-18T00:16:20;3.72;;;2.47;;
73296;SDS011;61524;50.938;11.396;2022-12-18T00:18:50;5.53;;;2.47;;
73296;SDS011;61524;50.938;11.396;2022-12-18T00:21:17;5.88;;;3.25;;
73296;SDS011;61524;50.938;11.396;2022-12-18T00:23:44;5.70;;;3.70;;
73296;SDS011;61524;50.938;11.396;2022-12-18T00:26:14;4.95;;;2.72;;
73296;SDS011;61524;50.938;11.396;2022-12-18T00:28:42;4.80;;;2.50;;
73296;SDS011;61524;50.938;11.396;2022-12-18T00:31:09;1.17;;;1.08;;
73296;SDS011;61524;50.938;11.396;2022-12-18T00:33:37;3.83;;;2.58;;
73296;SDS011;61524;50.938;11.396;2022-12-18T00:36:03;3.92;;;2.05;;
73296;SDS011;61524;50.938;11.396;2022-12-18T00:38:31;9.20;;;3.55;;
73296;SDS011;61524;50.938;11.396;2022-12-18T00:40:57;8.55;;;3.00;;
73296;SDS011;61524;50.938;11.396;2022-12-18T00:43:22;10.55;;;3.42;;
73296;SDS011;61524;50.938;11.396;2022-12-18T00:45:48;4.03;;;2.00;;
73296;SDS011;61524;50.938;11.396;2022-12-18T00:48:13;2.38;;;2.15;;
73296;SDS011;61524;50.938;11.396;2022-12-18T00:50:39;5.22;;;2.80;;
73296;SDS011;61524;50.938;11.396;2022-12-18T00:53:05;2.60;;;1.23;;
73296;SDS011;61524;50.938;11.396;2022-12-18T00:55:30;9.02;;;2.72;;
73296;SDS011;61524;50.938;11.396;2022-12-18T00:57:56;6.20;;;3.58;;
73296;SDS011;61524;50.938;11.396;2022-12-18T01:00:21;8.88;;;2.90;;
73296;SDS011;61524;50.938;11.396;2022-12-18T01:02:47;9.50;;;3.08;;
73296;SDS011;61524;50.938;11.396;2022-12-18T01:05:13;3.03;;;2.10;;
73296;SDS011;61524;50.938;11.396;2022-12-18T01:07:39;1.88;;;1.60;;
73296;SDS011;61524;50.938;11.396;2022-12-18T01:10:04;2.85;;;2.30;;
73296;SDS011;61524;50.938;11.396;2022-12-18T01:12:31;4.95;;;2.83;;
73296;SDS011;61524;50.938;11.396;2022-12-18T01:14:57;7.55;;;2.88;;
73296;SDS011;61524;50.938;11.396;2022-12-18T01:17:23;5.72;;;3.38;;
73296;SDS011;61524;50.938;11.396;2022-12-18T01:19:48;7.18;;;3.65;;
73296;SDS011;61524;50.938;11.396;2022-12-18T01:22:14;3.35;;;1.73;;
73296;SDS011;61524;50.938;11.396;2022-12-18T01:24:40;2.22;;;1.88;;
73296;SDS011;61524;50.938;11.396;2022-12-18T01:27:05;9.07;;;3.75;;
73296;SDS011;61524;50.938;11.396;2022-12-18T01:29:31;6.88;;;2.47;;
73296;SDS011;61524;50.938;11.396;2022-12-18T01:31:56;10.43;;;2.50;;
73296;SDS011;61524;50.938;11.396;2022-12-18T01:34:25;2.85;;;2.55;;
73296;SDS011;61524;50.938;11.396;2022-12-18T01:36:50;1.58;;;1.27;;
73296;SDS011;61524;50.938;11.396;2022-12-18T01:39:17;9.55;;;2.85;;
73296;SDS011;61524;50.938;11.396;2022-12-18T01:41:43;3.95;;;2.17;;
73296;SDS011;61524;50.938;11.396;2022-12-18T01:52:32;1.05;;;0.80;;
73296;SDS011;61524;50.938;11.396;2022-12-18T01:54:59;3.28;;;1.70;;
73296;SDS011;61524;50.938;11.396;2022-12-18T01:57:26;2.10;;;1.92;;
73296;SDS011;61524;50.938;11.396;2022-12-18T01:59:53;3.88;;;1.63;;
73296;SDS011;61524;50.938;11.396;2022-12-18T02:02:26;1.45;;;1.05;;
73296;SDS011;61524;50.938;11.396;2022-12-18T02:04:52;5.07;;;2.90;;
73296;SDS011;61524;50.938;11.396;2022-12-18T02:10:13;2.67;;;1.80;;
73296;SDS011;61524;50.938;11.396;2022-12-18T02:12:56;5.40;;;2.35;;
73296;SDS011;61524;50.938;11.396;2022-12-18T02:18:04;4.43;;;2.35;;
73296;SDS011;61524;50.938;11.396;2022-12-18T02:20:47;2.53;;;1.98;;
73296;SDS011;61524;50.938;11.396;2022-12-18T02:29:03;1.83;;;1.67;;
73296;SDS011;61524;50.938;11.396;2022-12-18T02:31:36;2.17;;;0.95;;
73296;SDS011;61524;50.938;11.396;2022-12-18T02:34:07;2.60;;;2.20;;
73296;SDS011;61524;50.938;11.396;2022-12-18T02:36:34;3.85;;;3.05;;
73296;SDS011;61524;50.938;11.396;2022-12-18T02:39:04;4.05;;;2.70;;
73296;SDS011;61524;50.938;11.396;2022-12-18T02:41:32;3.08;;;1.45;;
73296;SDS011;61524;50.938;11.396;2022-12-18T02:44:01;3.10;;;2.53;;
73296;SDS011;61524;50.938;11.396;2022-12-18T02:46:32;4.80;;;2.38;;
73296;SDS011;61524;50.938;11.396;2022-12-18T02:49:06;3.20;;;2.42;;
73296;SDS011;61524;50.938;11.396;2022-12-18T02:51:40;2.28;;;1.67;;
73296;SDS011;61524;50.938;11.396;2022-12-18T02:54:23;2.33;;;1.80;;
73296;SDS011;61524;50.938;11.396;2022-12-18T02:56:54;4.32;;;2.35;;
73296;SDS011;61524;50.938;11.396;2022-12-18T02:59:29;1.58;;;1.48;;
73296;SDS011;61524;50.938;11.396;2022-12-18T03:02:12;1.73;;;1.50;;
73296;SDS011;61524;50.938;11.396;2022-12-18T03:04:51;1.85;;;1.40;;
73296;SDS011;61524;50.938;11.396;2022-12-18T03:07:34;1.45;;;0.95;;
73296;SDS011;61524;50.938;11.396;2022-12-18T03:10:04;2.15;;;1.67;;
73296;SDS011;61524;50.938;11.396;2022-12-18T03:12:32;2.45;;;1.35;;
73296;SDS011;61524;50.938;11.396;2022-12-18T03:15:10;6.10;;;0.95;;
73296;SDS011;61524;50.938;11.396;2022-12-18T03:17:40;1.70;;;1.15;;
73296;SDS011;61524;50.938;11.396;2022-12-18T03:20:11;7.53;;;2.58;;
73296;SDS011;61524;50.938;11.396;2022-12-18T03:22:39;3.38;;;2.28;;
73296;SDS011;61524;50.938;11.396;2022-12-18T03:25:09;6.45;;;2.75;;
73296;SDS011;61524;50.938;11.396;2022-12-18T03:27:39;1.88;;;1.67;;
73296;SDS011;61524;50.938;11.396;2022-12-18T03:30:10;5.72;;;2.38;;
73296;SDS011;61524;50.938;11.396;2022-12-18T03:35:34;1.80;;;1.65;;
73296;SDS011;61524;50.938;11.396;2022-12-18T03:38:04;3.80;;;2.53;;
73296;SDS011;61524;50.938;11.396;2022-12-18T03:40:32;2.20;;;1.58;;
73296;SDS011;61524;50.938;11.396;2022-12-18T03:43:27;2.72;;;1.85;;
73296;SDS011;61524;50.938;11.396;2022-12-18T03:46:05;2.20;;;1.85;;
73296;SDS011;61524;50.938;11.396;2022-12-18T03:48:44;6.82;;;3.58;;
73296;SDS011;61524;50.938;11.396;2022-12-18T03:51:18;1.70;;;1.42;;
73296;SDS011;61524;50.938;11.396;2022-12-18T03:56:22;4.45;;;1.70;;
73296;SDS011;61524;50.938;11.396;2022-12-18T03:58:53;3.45;;;2.50;;
73296;SDS011;61524;50.938;11.396;2022-12-18T04:01:22;1.98;;;1.83;;
73296;SDS011;61524;50.938;11.396;2022-12-18T04:03:53;5.60;;;2.08;;
73296;SDS011;61524;50.938;11.396;2022-12-18T04:06:20;0.95;;;0.88;;
73296;SDS011;61524;50.938;11.396;2022-12-18T04:08:46;2.63;;;1.27;;
73296;SDS011;61524;50.938;11.396;2022-12-18T04:11:12;1.15;;;0.75;;
73296;SDS011;61524;50.938;11.396;2022-12-18T04:13:38;1.80;;;1.23;;
73296;SDS011;61524;50.938;11.396;2022-12-18T04:16:04;2.05;;;1.60;;
73296;SDS011;61524;50.938;11.396;2022-12-18T04:18:30;1.25;;;1.15;;
73296;SDS011;61524;50.938;11.396;2022-12-18T04:20:55;2.40;;;1.80;;
73296;SDS011;61524;50.938;11.396;2022-12-18T04:23:21;6.50;;;1.77;;
73296;SDS011;61524;50.938;11.396;2022-12-18T04:25:47;3.55;;;1.88;;
73296;SDS011;61524;50.938;11.396;2022-12-18T04:28:12;1.67;;;1.48;;
73296;SDS011;61524;50.938;11.396;2022-12-18T04:30:38;2.92;;;1.80;;
73296;SDS011;61524;50.938;11.396;2022-12-18T04:33:03;2.63;;;1.42;;
73296;SDS011;61524;50.938;11.396;2022-12-18T04:35:29;5.20;;;1.63;;
73296;SDS011;61524;50.938;11.396;2022-12-18T04:37:55;2.22;;;1.35;;
73296;SDS011;61524;50.938;11.396;2022-12-18T04:40:20;1.42;;;1.33;;
73296;SDS011;61524;50.938;11.396;2022-12-18T04:42:46;1.58;;;1.17;;
73296;SDS011;61524;50.938;11.396;2022-12-18T04:45:11;5.18;;;1.83;;
73296;SDS011;61524;50.938;11.396;2022-12-18T04:47:37;2.55;;;1.63;;
73296;SDS011;61524;50.938;11.396;2022-12-18T04:50:02;3.63;;;2.25;;
73296;SDS011;61524;50.938;11.396;2022-12-18T04:52:28;0.88;;;0.85;;
73296;SDS011;61524;50.938;11.396;2022-12-18T04:54:53;4.90;;;2.22;;
73296;SDS011;61524;50.938;11.396;2022-12-18T04:57:19;0.82;;;0.82;;
73296;SDS011;61524;50.938;11.396;2022-12-18T04:59:44;0.35;;;0.35;;
73296;SDS011;61524;50.938;11.396;2022-12-18T05:02:10;1.65;;;1.30;;
73296;SDS011;61524;50.938;11.396;2022-12-18T05:04:35;1.73;;;1.38;;
73296;SDS011;61524;50.938;11.396;2022-12-18T05:07:01;3.63;;;1.63;;
73296;SDS011;61524;50.938;11.396;2022-12-18T05:09:26;2.63;;;1.42;;
73296;SDS011;61524;50.938;11.396;2022-12-18T05:11:52;3.35;;;2.08;;
73296;SDS011;61524;50.938;11.396;2022-12-18T05:14:18;1.00;;;0.90;;
73296;SDS011;61524;50.938;11.396;2022-12-18T05:16:44;4.30;;;1.77;;
73296;SDS011;61524;50.938;11.396;2022-12-18T05:19:09;4.68;;;2.83;;
73296;SDS011;61524;50.938;11.396;2022-12-18T05:21:35;1.67;;;1.05;;
73296;SDS011;61524;50.938;11.396;2022-12-18T05:24:00;1.02;;;0.90;;
73296;SDS011;61524;50.938;11.396;2022-12-18T05:26:25;1.45;;;1.35;;
73296;SDS011;61524;50.938;11.396;2022-12-18T05:28:51;2.42;;;1.90;;
73296;SDS011;61524;50.938;11.396;2022-12-18T05:31:16;4.22;;;1.60;;
73296;SDS011;61524;50.938;11.396;2022-12-18T05:33:42;4.30;;;1.98;;
73296;SDS011;61524;50.938;11.396;2022-12-18T05:36:08;2.58;;;2.05;;
73296;SDS011;61524;50.938;11.396;2022-12-18T05:38:35;1.60;;;0.85;;
73296;SDS011;61524;50.938;11.396;2022-12-18T05:41:01;6.97;;;3.85;;
73296;SDS011;61524;50.938;11.396;2022-12-18T05:43:27;3.05;;;2.30;;
73296;SDS011;61524;50.938;11.396;2022-12-18T05:45:54;2.47;;;1.83;;
73296;SDS011;61524;50.938;11.396;2022-12-18T05:48:20;1.50;;;1.40;;
73296;SDS011;61524;50.938;11.396;2022-12-18T05:50:46;2.38;;;1.35;;
73296;SDS011;61524;50.938;11.396;2022-12-18T05:53:14;2.25;;;1.75;;
73296;SDS011;61524;50.938;11.396;2022-12-18T05:55:41;4.55;;;1.48;;
73296;SDS011;61524;50.938;11.396;2022-12-18T05:58:08;2.60;;;1.75;;
73296;SDS011;61524;50.938;11.396;2022-12-18T06:00:35;1.02;;;0.98;;
73296;SDS011;61524;50.938;11.396;2022-12-18T06:03:05;0.52;;;0.52;;
73296;SDS011;61524;50.938;11.396;2022-12-18T06:05:34;5.05;;;1.85;;
73296;SDS011;61524;50.938;11.396;2022-12-18T06:08:01;1.08;;;0.98;;
73296;SDS011;61524;50.938;11.396;2022-12-18T06:10:26;5.82;;;1.15;;
73296;SDS011;61524;50.938;11.396;2022-12-18T06:12:52;0.73;;;0.60;;
73296;SDS011;61524;50.938;11.396;2022-12-18T06:15:17;1.23;;;0.77;;
73296;SDS011;61524;50.938;11.396;2022-12-18T06:17:42;3.53;;;2.35;;
73296;SDS011;61524;50.938;11.396;2022-12-18T06:20:08;2.47;;;1.88;;
73296;SDS011;61524;50.938;11.396;2022-12-18T06:22:34;2.33;;;1.75;;
73296;SDS011;61524;50.938;11.396;2022-12-18T06:25:00;2.22;;;1.83;;
73296;SDS011;61524;50.938;11.396;2022-12-18T06:27:25;4.72;;;1.45;;
73296;SDS011;61524;50.938;11.396;2022-12-18T06:29:51;1.42;;;1.33;;
73296;SDS011;61524;50.938;11.396;2022-12-18T06:32:16;6.13;;;1.98;;
73296;SDS011;61524;50.938;11.396;2022-12-18T06:34:41;1.17;;;1.10;;
73296;SDS011;61524;50.938;11.396;2022-12-18T06:37:07;2.53;;;1.80;;
73296;SDS011;61524;50.938;11.396;2022-12-18T06:39:32;0.45;;;0.45;;
73296;SDS011;61524;50.938;11.396;2022-12-18T06:41:58;2.80;;;1.75;;
73296;SDS011;61524;50.938;11.396;2022-12-18T06:44:23;2.75;;;1.90;;
73296;SDS011;61524;50.938;11.396;2022-12-18T06:46:49;4.72;;;1.83;;
73296;SDS011;61524;50.938;11.396;2022-12-18T06:49:14;2.72;;;1.50;;
73296;SDS011;61524;50.938;11.396;2022-12-18T06:51:41;2.08;;;1.88;;
73296;SDS011;61524;50.938;11.396;2022-12-18T06:54:06;1.02;;;1.02;;
73296;SDS011;61524;50.938;11.396;2022-12-18T06:56:32;3.05;;;2.03;;
73296;SDS011;61524;50.938;11.396;2022-12-18T06:58:58;0.90;;;0.88;;
73296;SDS011;61524;50.938;11.396;2022-12-18T07:01:23;1.58;;;0.98;;
73296;SDS011;61524;50.938;11.396;2022-12-18T07:03:55;3.08;;;2.10;;
73296;SDS011;61524;50.938;11.396;2022-12-18T07:06:22;3.95;;;1.88;;
73296;SDS011;61524;50.938;11.396;2022-12-18T07:08:50;1.48;;;1.23;;
73296;SDS011;61524;50.938;11.396;2022-12-18T07:11:18;1.30;;;1.17;;
73296;SDS011;61524;50.938;11.396;2022-12-18T07:13:44;4.32;;;2.47;;
73296;SDS011;61524;50.938;11.396;2022-12-18T07:16:11;2.08;;;1.88;;
73296;SDS011;61524;50.938;11.396;2022-12-18T07:18:39;3.38;;;2.88;;
73296;SDS011;61524;50.938;11.396;2022-12-18T07:21:05;2.50;;;1.55;;
73296;SDS011;61524;50.938;11.396;2022-12-18T07:23:33;6.10;;;1.67;;
73296;SDS011;61524;50.938;11.396;2022-12-18T07:26:06;1.95;;;1.83;;
73296;SDS011;61524;50.938;11.396;2022-12-18T07:28:34;4.03;;;1.20;;
73296;SDS011;61524;50.938;11.396;2022-12-18T07:31:07;3.13;;;2.08;;
73296;SDS011;61524;50.938;11.396;2022-12-18T07:33:35;1.88;;;1.52;;
73296;SDS011;61524;50.938;11.396;2022-12-18T07:36:01;3.00;;;2.78;;
73296;SDS011;61524;50.938;11.396;2022-12-18T07:38:28;3.20;;;2.55;;
73296;SDS011;61524;50.938;11.396;2022-12-18T07:40:54;1.63;;;0.82;;
73296;SDS011;61524;50.938;11.396;2022-12-18T07:43:19;5.20;;;2.35;;
73296;SDS011;61524;50.938;11.396;2022-12-18T07:45:45;8.55;;;2.42;;
73296;SDS011;61524;50.938;11.396;2022-12-18T07:48:14;3.53;;;1.67;;
73296;SDS011;61524;50.938;11.396;2022-12-18T07:50:39;10.20;;;3.80;;
73296;SDS011;61524;50.938;11.396;2022-12-18T07:53:04;3.17;;;2.22;;
73296;SDS011;61524;50.938;11.396;2022-12-18T07:55:30;8.73;;;5.15;;
73296;SDS011;61524;50.938;11.396;2022-12-18T07:57:56;4.70;;;4.13;;
73296;SDS011;61524;50.938;11.396;2022-12-18T08:00:21;10.00;;;4.15;;
73296;SDS011;61524;50.938;11.396;2022-12-18T08:02:47;5.43;;;3.63;;
73296;SDS011;61524;50.938;11.396;2022-12-18T08:05:12;11.85;;;4.63;;
73296;SDS011;61524;50.938;11.396;2022-12-18T08:07:38;7.93;;;4.63;;
73296;SDS011;61524;50.938;11.396;2022-12-18T08:10:05;4.85;;;3.72;;
73296;SDS011;61524;50.938;11.396;2022-12-18T08:12:31;10.93;;;5.15;;
73296;SDS011;61524;50.938;11.396;2022-12-18T08:14:57;4.43;;;3.33;;
73296;SDS011;61524;50.938;11.396;2022-12-18T08:17:22;3.10;;;2.78;;
73296;SDS011;61524;50.938;11.396;2022-12-18T08:19:47;5.38;;;4.80;;
73296;SDS011;61524;50.938;11.396;2022-12-18T08:22:13;4.15;;;1.90;;
73296;SDS011;61524;50.938;11.396;2022-12-18T08:24:38;6.50;;;3.85;;
73296;SDS011;61524;50.938;11.396;2022-12-18T08:27:04;2.15;;;1.83;;
73296;SDS011;61524;50.938;11.396;2022-12-18T08:29:29;4.65;;;2.97;;
73296;SDS011;61524;50.938;11.396;2022-12-18T08:31:55;4.65;;;2.60;;
73296;SDS011;61524;50.938;11.396;2022-12-18T08:34:21;3.50;;;1.75;;
73296;SDS011;61524;50.938;11.396;2022-12-18T08:36:46;4.88;;;2.67;;
73296;SDS011;61524;50.938;11.396;2022-12-18T08:39:12;4.65;;;2.20;;
73296;SDS011;61524;50.938;11.396;2022-12-18T08:41:37;4.72;;;4.18;;
73296;SDS011;61524;50.938;11.396;2022-12-18T08:44:02;2.90;;;1.67;;
73296;SDS011;61524;50.938;11.396;2022-12-18T08:46:57;7.78;;;3.58;;
73296;SDS011;61524;50.938;11.396;2022-12-18T08:49:23;4.75;;;3.17;;
73296;SDS011;61524;50.938;11.396;2022-12-18T08:51:48;3.00;;;2.70;;
73296;SDS011;61524;50.938;11.396;2022-12-18T08:54:19;2.00;;;1.77;;
73296;SDS011;61524;50.938;11.396;2022-12-18T08:56:45;3.70;;;2.45;;
73296;SDS011;61524;50.938;11.396;2022-12-18T08:59:11;3.50;;;3.20;;
73296;SDS011;61524;50.938;11.396;2022-12-18T09:01:36;6.90;;;2.47;;
73296;SDS011;61524;50.938;11.396;2022-12-18T09:04:01;4.10;;;1.98;;
73296;SDS011;61524;50.938;11.396;2022-12-18T09:06:27;7.97;;;3.70;;
73296;SDS011;61524;50.938;11.396;2022-12-18T09:08:52;3.42;;;3.08;;
73296;SDS011;61524;50.938;11.396;2022-12-18T09:11:19;5.43;;;2.65;;
73296;SDS011;61524;50.938;11.396;2022-12-18T09:13:45;6.03;;;3.80;;
73296;SDS011;61524;50.938;11.396;2022-12-18T09:16:10;3.60;;;2.35;;
73296;SDS011;61524;50.938;11.396;2022-12-18T09:18:36;5.90;;;3.33;;
73296;SDS011;61524;50.938;11.396;2022-12-18T09:21:15;5.38;;;2.47;;
73296;SDS011;61524;50.938;11.396;2022-12-18T09:23:42;4.57;;;2.72;;
73296;SDS011;61524;50.938;11.396;2022-12-18T09:26:08;7.85;;;4.35;;
73296;SDS011;61524;50.938;11.396;2022-12-18T09:28:34;5.95;;;3.35;;
73296;SDS011;61524;50.938;11.396;2022-12-18T09:31:03;4.65;;;2.88;;
73296;SDS011;61524;50.938;11.396;2022-12-18T09:33:31;5.50;;;2.97;;
73296;SDS011;61524;50.938;11.396;2022-12-18T09:35:56;4.80;;;2.42;;
73296;SDS011;61524;50.938;11.396;2022-12-18T09:38:22;11.27;;;4.90;;
73296;SDS011;61524;50.938;11.396;2022-12-18T09:40:49;7.32;;;3.00;;
73296;SDS011;61524;50.938;11.396;2022-12-18T09:43:22;7.03;;;3.47;;
73296;SDS011;61524;50.938;11.396;2022-12-18T09:45:58;5.97;;;3.40;;
73296;SDS011;61524;50.938;11.396;2022-12-18T09:48:28;3.63;;;2.40;;
73296;SDS011;61524;50.938;11.396;2022-12-18T09:50:59;10.68;;;4.57;;
73296;SDS011;61524;50.938;11.396;2022-12-18T09:53:31;5.13;;;3.47;;
73296;SDS011;61524;50.938;11.396;2022-12-18T09:56:00;7.38;;;2.55;;
73296;SDS011;61524;50.938;11.396;2022-12-18T09:58:34;6.35;;;3.38;;
73296;SDS011;61524;50.938;11.396;2022-12-18T10:01:11;8.68;;;4.00;;
73296;SDS011;61524;50.938;11.396;2022-12-18T10:03:43;6.82;;;3.10;;
73296;SDS011;61524;50.938;11.396;2022-12-18T10:06:13;9.40;;;4.25;;
73296;SDS011;61524;50.938;11.396;2022-12-18T10:14:40;7.45;;;4.15;;
73296;SDS011;61524;50.938;11.396;2022-12-18T10:20:27;9.18;;;5.07;;
73296;SDS011;61524;50.938;11.396;2022-12-18T10:28:29;16.98;;;7.57;;
73296;SDS011;61524;50.938;11.396;2022-12-18T10:33:22;10.77;;;4.80;;
73296;SDS011;61524;50.938;11.396;2022-12-18T10:35:50;7.05;;;4.88;;
73296;SDS011;61524;50.938;11.396;2022-12-18T10:40:50;14.63;;;6.30;;
73296;SDS011;61524;50.938;11.396;2022-12-18T10:51:16;19.40;;;8.45;;
73296;SDS011;61524;50.938;11.396;2022-12-18T10:53:50;17.75;;;8.45;;
73296;SDS011;61524;50.938;11.396;2022-12-18T10:56:19;22.30;;;8.10;;
73296;SDS011;61524;50.938;11.396;2022-12-18T10:58:46;18.38;;;8.18;;
73296;SDS011;61524;50.938;11.396;2022-12-18T11:01:21;8.38;;;5.60;;
73296;SDS011;61524;50.938;11.396;2022-12-18T11:03:58;10.93;;;7.20;;
73296;SDS011;61524;50.938;11.396;2022-12-18T11:06:26;17.95;;;6.78;;
73296;SDS011;61524;50.938;11.396;2022-12-18T11:09:02;22.95;;;9.27;;
73296;SDS011;61524;50.938;11.396;2022-12-18T11:11:29;14.93;;;7.72;;
73296;SDS011;61524;50.938;11.396;2022-12-18T11:14:11;10.52;;;5.78;;
73296;SDS011;61524;50.938;11.396;2022-12-18T11:16:48;8.52;;;5.95;;
73296;SDS011;61524;50.938;11.396;2022-12-18T11:21:53;17.23;;;8.57;;
73296;SDS011;61524;50.938;11.396;2022-12-18T11:24:29;37.70;;;16.20;;
73296;SDS011;61524;50.938;11.396;2022-12-18T11:27:00;36.88;;;17.70;;
73296;SDS011;61524;50.938;11.396;2022-12-18T11:29:30;33.88;;;17.50;;
73296;SDS011;61524;50.938;11.396;2022-12-18T11:34:39;18.70;;;10.00;;
73296;SDS011;61524;50.938;11.396;2022-12-18T11:37:11;27.27;;;10.15;;
73296;SDS011;61524;50.938;11.396;2022-12-18T11:39:55;13.98;;;6.85;;
73296;SDS011;61524;50.938;11.396;2022-12-18T11:47:47;14.48;;;5.43;;
73296;SDS011;61524;50.938;11.396;2022-12-18T11:50:21;9.88;;;5.35;;
73296;SDS011;61524;50.938;11.396;2022-12-18T11:52:50;9.27;;;4.63;;
73296;SDS011;61524;50.938;11.396;2022-12-18T11:55:19;8.10;;;4.65;;
73296;SDS011;61524;50.938;11.396;2022-12-18T12:09:31;3.85;;;1.50;;
73296;SDS011;61524;50.938;11.396;2022-12-18T12:12:26;4.28;;;2.08;;
73296;SDS011;61524;50.938;11.396;2022-12-18T12:15:02;3.75;;;1.90;;
73296;SDS011;61524;50.938;11.396;2022-12-18T12:20:46;3.35;;;2.45;;
73296;SDS011;61524;50.938;11.396;2022-12-18T12:26:49;2.78;;;1.05;;
73296;SDS011;61524;50.938;11.396;2022-12-18T12:31:51;4.85;;;2.45;;
73296;SDS011;61524;50.938;11.396;2022-12-18T12:34:23;3.28;;;2.47;;
73296;SDS011;61524;50.938;11.396;2022-12-18T12:39:23;5.30;;;3.00;;
73296;SDS011;61524;50.938;11.396;2022-12-18T12:41:54;3.30;;;1.77;;
73296;SDS011;61524;50.938;11.396;2022-12-18T12:44:57;2.38;;;1.45;;
73296;SDS011;61524;50.938;11.396;2022-12-18T12:47:27;3.22;;;2.35;;
73296;SDS011;61524;50.938;11.396;2022-12-18T12:49:58;5.68;;;1.73;;
73296;SDS011;61524;50.938;11.396;2022-12-18T12:52:31;17.52;;;2.83;;
73296;SDS011;61524;50.938;11.396;2022-12-18T12:55:00;2.58;;;1.55;;
73296;SDS011;61524;50.938;11.396;2022-12-18T12:57:36;3.65;;;2.05;;
73296;SDS011;61524;50.938;11.396;2022-12-18T13:00:17;4.90;;;2.47;;
73296;SDS011;61524;50.938;11.396;2022-12-18T13:02:47;5.20;;;1.75;;
73296;SDS011;61524;50.938;11.396;2022-12-18T13:08:03;5.60;;;2.83;;
73296;SDS011;61524;50.938;11.396;2022-12-18T13:10:32;6.50;;;2.90;;
73296;SDS011;61524;50.938;11.396;2022-12-18T13:15:48;5.30;;;2.53;;
73296;SDS011;61524;50.938;11.396;2022-12-18T13:18:28;4.97;;;2.75;;
73296;SDS011;61524;50.938;11.396;2022-12-18T13:23:20;4.53;;;2.70;;
73296;SDS011;61524;50.938;11.396;2022-12-18T13:30:58;4.75;;;2.28;;
73296;SDS011;61524;50.938;11.396;2022-12-18T13:36:03;2.33;;;1.63;;
73296;SDS011;61524;50.938;11.396;2022-12-18T13:39:22;2.97;;;1.90;;
73296;SDS011;61524;50.938;11.396;2022-12-18T13:46:55;8.52;;;1.98;;
73296;SDS011;61524;50.938;11.396;2022-12-18T13:49:34;9.45;;;2.28;;
73296;SDS011;61524;50.938;11.396;2022-12-18T13:52:03;8.93;;;3.03;;
73296;SDS011;61524;50.938;11.396;2022-12-18T13:54:42;7.10;;;3.20;;
73296;SDS011;61524;50.938;11.396;2022-12-18T13:57:26;8.35;;;3.08;;
73296;SDS011;61524;50.938;11.396;2022-12-18T13:59:52;6.70;;;3.55;;
73296;SDS011;61524;50.938;11.396;2022-12-18T14:02:21;8.63;;;3.35;;
73296;SDS011;61524;50.938;11.396;2022-12-18T14:04:49;9.57;;;3.65;;
73296;SDS011;61524;50.938;11.396;2022-12-18T14:07:23;6.10;;;3.65;;
73296;SDS011;61524;50.938;11.396;2022-12-18T14:09:51;7.20;;;2.88;;
73296;SDS011;61524;50.938;11.396;2022-12-18T14:12:22;8.32;;;2.85;;
73296;SDS011;61524;50.938;11.396;2022-12-18T14:15:21;9.65;;;4.00;;
73296;SDS011;61524;50.938;11.396;2022-12-18T14:17:52;5.13;;;3.05;;
73296;SDS011;61524;50.938;11.396;2022-12-18T14:20:19;9.88;;;4.10;;
73296;SDS011;61524;50.938;11.396;2022-12-18T14:22:45;9.63;;;3.28;;
73296;SDS011;61524;50.938;11.396;2022-12-18T14:25:20;5.05;;;2.67;;
73296;SDS011;61524;50.938;11.396;2022-12-18T14:27:50;7.13;;;3.13;;
73296;SDS011;61524;50.938;11.396;2022-12-18T14:30:31;7.30;;;2.78;;
73296;SDS011;61524;50.938;11.396;2022-12-18T14:33:10;6.35;;;3.15;;
73296;SDS011;61524;50.938;11.396;2022-12-18T14:35:41;4.90;;;2.75;;
73296;SDS011;61524;50.938;11.396;2022-12-18T14:38:54;7.75;;;2.97;;
73296;SDS011;61524;50.938;11.396;2022-12-18T14:40:59;7.65;;;3.40;;
73296;SDS011;61524;50.938;11.396;2022-12-18T14:43:27;6.68;;;3.05;;
73296;SDS011;61524;50.938;11.396;2022-12-18T14:48:22;5.03;;;1.90;;
73296;SDS011;61524;50.938;11.396;2022-12-18T14:53:38;6.43;;;2.50;;
73296;SDS011;61524;50.938;11.396;2022-12-18T14:59:06;6.72;;;2.72;;
73296;SDS011;61524;50.938;11.396;2022-12-18T15:01:56;6.60;;;2.92;;
73296;SDS011;61524;50.938;11.396;2022-12-18T15:12:46;5.80;;;2.85;;
73296;SDS011;61524;50.938;11.396;2022-12-18T15:18:09;7.10;;;3.00;;
73296;SDS011;61524;50.938;11.396;2022-12-18T15:20:41;8.00;;;3.33;;
73296;SDS011;61524;50.938;11.396;2022-12-18T15:23:16;7.57;;;3.35;;
73296;SDS011;61524;50.938;11.396;2022-12-18T15:25:44;8.32;;;2.97;;
73296;SDS011;61524;50.938;11.396;2022-12-18T15:31:24;6.25;;;3.47;;
73296;SDS011;61524;50.938;11.396;2022-12-18T15:36:19;5.97;;;3.45;;
73296;SDS011;61524;50.938;11.396;2022-12-18T15:38:47;7.07;;;2.92;;
73296;SDS011;61524;50.938;11.396;2022-12-18T15:41:14;8.98;;;3.05;;
73296;SDS011;61524;50.938;11.396;2022-12-18T15:43:41;7.45;;;3.95;;
73296;SDS011;61524;50.938;11.396;2022-12-18T15:46:09;8.77;;;3.35;;
73296;SDS011;61524;50.938;11.396;2022-12-18T15:48:41;7.32;;;3.28;;
73296;SDS011;61524;50.938;11.396;2022-12-18T15:51:13;8.43;;;3.42;;
73296;SDS011;61524;50.938;11.396;2022-12-18T15:53:42;2.50;;;1.45;;
73296;SDS011;61524;50.938;11.396;2022-12-18T15:56:10;2.95;;;1.90;;
73296;SDS011;61524;50.938;11.396;2022-12-18T16:03:48;7.30;;;2.55;;
73296;SDS011;61524;50.938;11.396;2022-12-18T16:06:13;11.30;;;4.10;;
73296;SDS011;61524;50.938;11.396;2022-12-18T16:08:39;9.88;;;3.15;;
73296;SDS011;61524;50.938;11.396;2022-12-18T16:11:04;8.63;;;3.50;;
73296;SDS011;61524;50.938;11.396;2022-12-18T16:13:30;8.35;;;3.25;;
73296;SDS011;61524;50.938;11.396;2022-12-18T16:15:56;8.27;;;3.22;;
73296;SDS011;61524;50.938;11.396;2022-12-18T16:18:21;7.43;;;3.00;;
73296;SDS011;61524;50.938;11.396;2022-12-18T16:20:47;6.78;;;2.67;;
73296;SDS011;61524;50.938;11.396;2022-12-18T16:23:12;6.13;;;3.17;;
73296;SDS011;61524;50.938;11.396;2022-12-18T16:25:38;9.68;;;3.53;;
73296;SDS011;61524;50.938;11.396;2022-12-18T16:28:03;7.75;;;3.85;;
73296;SDS011;61524;50.938;11.396;2022-12-18T16:30:29;7.25;;;3.10;;
73296;SDS011;61524;50.938;11.396;2022-12-18T16:32:59;8.73;;;3.17;;
73296;SDS011;61524;50.938;11.396;2022-12-18T16:35:25;8.23;;;3.38;;
73296;SDS011;61524;50.938;11.396;2022-12-18T16:37:51;7.95;;;4.10;;
73296;SDS011;61524;50.938;11.396;2022-12-18T16:40:17;7.13;;;2.70;;
73296;SDS011;61524;50.938;11.396;2022-12-18T16:42:44;9.02;;;3.13;;
73296;SDS011;61524;50.938;11.396;2022-12-18T16:45:12;2.95;;;1.63;;
73296;SDS011;61524;50.938;11.396;2022-12-18T16:47:39;7.53;;;3.45;;
73296;SDS011;61524;50.938;11.396;2022-12-18T16:50:05;9.98;;;3.63;;
73296;SDS011;61524;50.938;11.396;2022-12-18T16:52:32;5.80;;;3.15;;
73296;SDS011;61524;50.938;11.396;2022-12-18T16:54:58;8.55;;;3.25;;
73296;SDS011;61524;50.938;11.396;2022-12-18T16:57:23;7.45;;;3.20;;
73296;SDS011;61524;50.938;11.396;2022-12-18T16:59:48;7.22;;;3.10;;
73296;SDS011;61524;50.938;11.396;2022-12-18T17:02:21;8.05;;;3.45;;